sensor_id;sensor_type;location;lat;lon;timestamp;P1;durP1;ratioP1;P2;durP2;ratioP2
17658;SDS011;8948;51.534;8.262;2022-12-18T00:04:53;2.83;;;1.90;;
17658;SDS011;8948;51.534;8.262;2022-12-18T00:09:54;1.83;;;1.70;;
17658;SDS011;8948;51.534;8.262;2022-12-18T00:14:54;3.73;;;2.07;;
17658;SDS011;8948;51.534;8.262;2022-12-18T00:19:55;2.77;;;1.80;;
17658;SDS011;8948;51.534;8.262;2022-12-18T00:24:55;2.13;;;1.80;;
17658;SDS011;8948;51.534;8.262;2022-12-18T00:29:56;2.27;;;2.07;;
17658;SDS011;8948;51.534;8.262;2022-12-18T00:34:57;3.00;;;2.10;;
17658;SDS011;8948;51.534;8.262;2022-12-18T00:39:57;4.87;;;2.20;;
17658;SDS011;8948;51.534;8.262;2022-12-18T00:44:58;4.17;;;2.20;;
17658;SDS011;8948;51.534;8.262;2022-12-18T00:49:59;5.57;;;2.20;;
17658;SDS011;8948;51.534;8.262;2022-12-18T00:54:59;3.53;;;2.27;;
17658;SDS011;8948;51.534;8.262;2022-12-18T01:00:00;5.53;;;2.10;;
17658;SDS011;8948;51.534;8.262;2022-12-18T01:05:01;5.63;;;2.00;;
17658;SDS011;8948;51.534;8.262;2022-12-18T01:10:01;4.00;;;2.50;;
17658;SDS011;8948;51.534;8.262;2022-12-18T01:15:03;4.47;;;2.30;;
17658;SDS011;8948;51.534;8.262;2022-12-18T01:20:05;6.00;;;2.23;;
17658;SDS011;8948;51.534;8.262;2022-12-18T01:25:07;3.50;;;2.13;;
17658;SDS011;8948;51.534;8.262;2022-12-18T01:30:08;2.90;;;2.07;;
17658;SDS011;8948;51.534;8.262;2022-12-18T01:35:09;3.57;;;2.03;;
17658;SDS011;8948;51.534;8.262;2022-12-18T01:40:09;2.60;;;1.87;;
17658;SDS011;8948;51.534;8.262;2022-12-18T01:50:23;6.33;;;2.00;;
17658;SDS011;8948;51.534;8.262;2022-12-18T01:55:29;3.20;;;2.20;;
17658;SDS011;8948;51.534;8.262;2022-12-18T02:00:33;3.10;;;2.13;;
17658;SDS011;8948;51.534;8.262;2022-12-18T02:05:44;3.10;;;2.10;;
17658;SDS011;8948;51.534;8.262;2022-12-18T02:11:06;2.40;;;2.10;;
17658;SDS011;8948;51.534;8.262;2022-12-18T02:27:12;3.73;;;2.20;;
17658;SDS011;8948;51.534;8.262;2022-12-18T02:32:17;5.17;;;2.30;;
17658;SDS011;8948;51.534;8.262;2022-12-18T02:37:25;3.87;;;2.47;;
17658;SDS011;8948;51.534;8.262;2022-12-18T02:42:27;4.17;;;1.87;;
17658;SDS011;8948;51.534;8.262;2022-12-18T02:47:29;2.80;;;2.13;;
17658;SDS011;8948;51.534;8.262;2022-12-18T03:03:03;3.13;;;1.80;;
17658;SDS011;8948;51.534;8.262;2022-12-18T03:08:12;2.27;;;2.03;;
17658;SDS011;8948;51.534;8.262;2022-12-18T03:13:30;4.43;;;1.90;;
17658;SDS011;8948;51.534;8.262;2022-12-18T03:18:57;5.87;;;2.57;;
17658;SDS011;8948;51.534;8.262;2022-12-18T03:24:01;3.10;;;1.90;;
17658;SDS011;8948;51.534;8.262;2022-12-18T03:29:07;2.90;;;2.10;;
17658;SDS011;8948;51.534;8.262;2022-12-18T03:34:38;3.87;;;2.20;;
17658;SDS011;8948;51.534;8.262;2022-12-18T03:39:41;3.00;;;2.17;;
17658;SDS011;8948;51.534;8.262;2022-12-18T03:44:44;2.80;;;2.13;;
17658;SDS011;8948;51.534;8.262;2022-12-18T03:54:55;3.47;;;2.30;;
17658;SDS011;8948;51.534;8.262;2022-12-18T04:00:08;4.07;;;2.20;;
17658;SDS011;8948;51.534;8.262;2022-12-18T04:05:12;2.77;;;1.80;;
17658;SDS011;8948;51.534;8.262;2022-12-18T04:10:14;3.57;;;2.03;;
17658;SDS011;8948;51.534;8.262;2022-12-18T04:15:16;2.67;;;1.93;;
17658;SDS011;8948;51.534;8.262;2022-12-18T04:20:17;3.03;;;2.00;;
17658;SDS011;8948;51.534;8.262;2022-12-18T04:25:18;2.70;;;2.00;;
17658;SDS011;8948;51.534;8.262;2022-12-18T04:30:18;4.40;;;2.30;;
17658;SDS011;8948;51.534;8.262;2022-12-18T04:35:19;2.33;;;1.90;;
17658;SDS011;8948;51.534;8.262;2022-12-18T04:40:19;4.53;;;2.40;;
17658;SDS011;8948;51.534;8.262;2022-12-18T04:45:20;4.17;;;2.20;;
17658;SDS011;8948;51.534;8.262;2022-12-18T04:50:21;4.73;;;2.23;;
17658;SDS011;8948;51.534;8.262;2022-12-18T04:55:21;2.53;;;2.23;;
17658;SDS011;8948;51.534;8.262;2022-12-18T05:00:22;2.90;;;2.13;;
17658;SDS011;8948;51.534;8.262;2022-12-18T05:05:22;4.50;;;2.60;;
17658;SDS011;8948;51.534;8.262;2022-12-18T05:10:23;2.60;;;2.20;;
17658;SDS011;8948;51.534;8.262;2022-12-18T05:15:27;2.23;;;2.03;;
17658;SDS011;8948;51.534;8.262;2022-12-18T05:20:29;3.27;;;2.30;;
17658;SDS011;8948;51.534;8.262;2022-12-18T05:25:29;3.37;;;2.40;;
17658;SDS011;8948;51.534;8.262;2022-12-18T05:30:30;2.97;;;2.40;;
17658;SDS011;8948;51.534;8.262;2022-12-18T05:35:31;2.57;;;1.97;;
17658;SDS011;8948;51.534;8.262;2022-12-18T05:40:31;3.03;;;2.23;;
17658;SDS011;8948;51.534;8.262;2022-12-18T05:45:32;3.57;;;2.53;;
17658;SDS011;8948;51.534;8.262;2022-12-18T05:50:36;2.23;;;2.00;;
17658;SDS011;8948;51.534;8.262;2022-12-18T05:55:38;4.93;;;2.57;;
17658;SDS011;8948;51.534;8.262;2022-12-18T06:00:41;3.17;;;2.20;;
17658;SDS011;8948;51.534;8.262;2022-12-18T06:05:44;5.83;;;2.37;;
17658;SDS011;8948;51.534;8.262;2022-12-18T06:10:49;3.67;;;2.30;;
17658;SDS011;8948;51.534;8.262;2022-12-18T06:15:51;7.17;;;3.50;;
17658;SDS011;8948;51.534;8.262;2022-12-18T06:20:55;4.93;;;2.67;;
17658;SDS011;8948;51.534;8.262;2022-12-18T06:25:56;3.43;;;2.50;;
17658;SDS011;8948;51.534;8.262;2022-12-18T06:30:57;5.40;;;2.50;;
17658;SDS011;8948;51.534;8.262;2022-12-18T06:36:01;3.60;;;2.27;;
17658;SDS011;8948;51.534;8.262;2022-12-18T06:41:11;3.90;;;2.60;;
17658;SDS011;8948;51.534;8.262;2022-12-18T06:46:13;3.13;;;2.27;;
17658;SDS011;8948;51.534;8.262;2022-12-18T06:51:15;3.27;;;2.10;;
17658;SDS011;8948;51.534;8.262;2022-12-18T06:56:17;3.40;;;2.27;;
17658;SDS011;8948;51.534;8.262;2022-12-18T07:01:17;2.80;;;2.20;;
17658;SDS011;8948;51.534;8.262;2022-12-18T07:06:19;4.07;;;2.30;;
17658;SDS011;8948;51.534;8.262;2022-12-18T07:11:21;3.23;;;2.33;;
17658;SDS011;8948;51.534;8.262;2022-12-18T07:16:22;4.17;;;2.20;;
17658;SDS011;8948;51.534;8.262;2022-12-18T07:21:23;2.43;;;2.13;;
17658;SDS011;8948;51.534;8.262;2022-12-18T07:26:24;4.50;;;2.30;;
17658;SDS011;8948;51.534;8.262;2022-12-18T07:31:26;2.90;;;2.10;;
17658;SDS011;8948;51.534;8.262;2022-12-18T07:36:27;3.17;;;2.30;;
17658;SDS011;8948;51.534;8.262;2022-12-18T07:41:28;3.03;;;2.10;;
17658;SDS011;8948;51.534;8.262;2022-12-18T07:46:28;4.10;;;2.60;;
17658;SDS011;8948;51.534;8.262;2022-12-18T07:51:29;3.07;;;2.20;;
17658;SDS011;8948;51.534;8.262;2022-12-18T07:56:29;3.60;;;2.30;;
17658;SDS011;8948;51.534;8.262;2022-12-18T08:01:30;4.07;;;2.60;;
17658;SDS011;8948;51.534;8.262;2022-12-18T08:06:31;4.27;;;2.80;;
17658;SDS011;8948;51.534;8.262;2022-12-18T08:11:32;4.67;;;3.10;;
17658;SDS011;8948;51.534;8.262;2022-12-18T08:16:32;6.07;;;2.93;;
17658;SDS011;8948;51.534;8.262;2022-12-18T08:21:33;6.67;;;3.13;;
17658;SDS011;8948;51.534;8.262;2022-12-18T08:26:33;7.07;;;3.77;;
17658;SDS011;8948;51.534;8.262;2022-12-18T08:31:34;4.73;;;3.13;;
17658;SDS011;8948;51.534;8.262;2022-12-18T08:36:34;6.97;;;3.00;;
17658;SDS011;8948;51.534;8.262;2022-12-18T08:41:35;5.43;;;2.70;;
17658;SDS011;8948;51.534;8.262;2022-12-18T08:46:39;4.10;;;2.67;;
17658;SDS011;8948;51.534;8.262;2022-12-18T08:51:41;6.00;;;2.50;;
17658;SDS011;8948;51.534;8.262;2022-12-18T08:56:42;2.73;;;2.07;;
17658;SDS011;8948;51.534;8.262;2022-12-18T09:01:42;3.83;;;2.50;;
17658;SDS011;8948;51.534;8.262;2022-12-18T09:06:43;3.13;;;2.60;;
17658;SDS011;8948;51.534;8.262;2022-12-18T09:11:44;5.60;;;2.40;;
17658;SDS011;8948;51.534;8.262;2022-12-18T09:16:44;3.10;;;2.23;;
17658;SDS011;8948;51.534;8.262;2022-12-18T09:21:45;3.60;;;2.53;;
17658;SDS011;8948;51.534;8.262;2022-12-18T09:26:45;6.13;;;3.90;;
17658;SDS011;8948;51.534;8.262;2022-12-18T09:31:47;5.67;;;2.70;;
17658;SDS011;8948;51.534;8.262;2022-12-18T09:36:49;3.60;;;2.10;;
17658;SDS011;8948;51.534;8.262;2022-12-18T09:41:51;4.20;;;2.57;;
17658;SDS011;8948;51.534;8.262;2022-12-18T09:57:15;4.53;;;2.80;;
17658;SDS011;8948;51.534;8.262;2022-12-18T10:02:20;7.50;;;2.80;;
17658;SDS011;8948;51.534;8.262;2022-12-18T10:07:32;5.30;;;2.73;;
17658;SDS011;8948;51.534;8.262;2022-12-18T10:12:58;5.50;;;3.00;;
17658;SDS011;8948;51.534;8.262;2022-12-18T10:18:17;4.90;;;3.20;;
17658;SDS011;8948;51.534;8.262;2022-12-18T10:28:54;4.33;;;3.00;;
17658;SDS011;8948;51.534;8.262;2022-12-18T10:33:56;4.30;;;3.30;;
17658;SDS011;8948;51.534;8.262;2022-12-18T10:39:13;4.90;;;3.43;;
17658;SDS011;8948;51.534;8.262;2022-12-18T10:44:22;6.10;;;3.97;;
17658;SDS011;8948;51.534;8.262;2022-12-18T10:49:27;7.97;;;2.97;;
17658;SDS011;8948;51.534;8.262;2022-12-18T10:54:31;5.37;;;3.17;;
17658;SDS011;8948;51.534;8.262;2022-12-18T10:59:33;10.63;;;4.13;;
17658;SDS011;8948;51.534;8.262;2022-12-18T11:04:51;9.40;;;3.40;;
17658;SDS011;8948;51.534;8.262;2022-12-18T11:10:02;5.20;;;3.13;;
17658;SDS011;8948;51.534;8.262;2022-12-18T11:15:03;6.23;;;3.53;;
17658;SDS011;8948;51.534;8.262;2022-12-18T11:20:05;4.13;;;3.03;;
17658;SDS011;8948;51.534;8.262;2022-12-18T11:25:21;7.50;;;3.07;;
17658;SDS011;8948;51.534;8.262;2022-12-18T11:30:23;4.27;;;3.20;;
17658;SDS011;8948;51.534;8.262;2022-12-18T11:40:35;3.83;;;2.37;;
17658;SDS011;8948;51.534;8.262;2022-12-18T11:45:46;4.50;;;2.60;;
17658;SDS011;8948;51.534;8.262;2022-12-18T11:50:55;5.90;;;3.63;;
17658;SDS011;8948;51.534;8.262;2022-12-18T11:56:02;4.77;;;2.30;;
17658;SDS011;8948;51.534;8.262;2022-12-18T12:06:34;7.57;;;3.97;;
17658;SDS011;8948;51.534;8.262;2022-12-18T12:11:57;3.50;;;2.30;;
17658;SDS011;8948;51.534;8.262;2022-12-18T12:17:12;3.40;;;2.20;;
17658;SDS011;8948;51.534;8.262;2022-12-18T12:33:22;2.10;;;1.70;;
17658;SDS011;8948;51.534;8.262;2022-12-18T12:38:41;2.70;;;2.10;;
17658;SDS011;8948;51.534;8.262;2022-12-18T12:43:45;5.07;;;2.60;;
17658;SDS011;8948;51.534;8.262;2022-12-18T12:48:50;1.57;;;1.40;;
17658;SDS011;8948;51.534;8.262;2022-12-18T12:53:57;1.97;;;1.50;;
17658;SDS011;8948;51.534;8.262;2022-12-18T12:59:04;1.83;;;1.47;;
17658;SDS011;8948;51.534;8.262;2022-12-18T13:04:21;34.97;;;15.27;;
17658;SDS011;8948;51.534;8.262;2022-12-18T13:09:32;13.80;;;7.13;;
17658;SDS011;8948;51.534;8.262;2022-12-18T13:14:34;15.67;;;5.33;;
17658;SDS011;8948;51.534;8.262;2022-12-18T13:19:37;8.17;;;4.73;;
17658;SDS011;8948;51.534;8.262;2022-12-18T13:24:37;2.63;;;2.10;;
17658;SDS011;8948;51.534;8.262;2022-12-18T13:29:42;3.80;;;2.23;;
17658;SDS011;8948;51.534;8.262;2022-12-18T13:34:44;2.87;;;1.60;;
17658;SDS011;8948;51.534;8.262;2022-12-18T13:39:45;2.40;;;1.80;;
17658;SDS011;8948;51.534;8.262;2022-12-18T13:44:45;2.80;;;2.03;;
17658;SDS011;8948;51.534;8.262;2022-12-18T13:49:47;7.80;;;1.77;;
17658;SDS011;8948;51.534;8.262;2022-12-18T13:54:50;5.50;;;2.10;;
17658;SDS011;8948;51.534;8.262;2022-12-18T13:59:52;4.90;;;1.97;;
17658;SDS011;8948;51.534;8.262;2022-12-18T14:04:53;2.37;;;1.90;;
17658;SDS011;8948;51.534;8.262;2022-12-18T14:09:55;2.97;;;1.80;;
17658;SDS011;8948;51.534;8.262;2022-12-18T14:14:57;2.93;;;2.10;;
17658;SDS011;8948;51.534;8.262;2022-12-18T14:19:58;5.27;;;2.13;;
17658;SDS011;8948;51.534;8.262;2022-12-18T14:30:26;3.00;;;1.97;;
17658;SDS011;8948;51.534;8.262;2022-12-18T14:35:28;2.97;;;2.17;;
17658;SDS011;8948;51.534;8.262;2022-12-18T14:40:29;3.53;;;2.57;;
17658;SDS011;8948;51.534;8.262;2022-12-18T14:45:36;2.87;;;1.93;;
17658;SDS011;8948;51.534;8.262;2022-12-18T14:50:41;3.50;;;2.13;;
17658;SDS011;8948;51.534;8.262;2022-12-18T14:55:44;4.47;;;2.20;;
17658;SDS011;8948;51.534;8.262;2022-12-18T15:00:47;3.10;;;2.27;;
17658;SDS011;8948;51.534;8.262;2022-12-18T15:05:48;3.43;;;2.37;;
17658;SDS011;8948;51.534;8.262;2022-12-18T15:10:48;3.53;;;2.37;;
17658;SDS011;8948;51.534;8.262;2022-12-18T15:15:49;3.47;;;2.10;;
17658;SDS011;8948;51.534;8.262;2022-12-18T15:20:54;4.37;;;2.60;;
17658;SDS011;8948;51.534;8.262;2022-12-18T15:26:02;5.43;;;2.73;;
17658;SDS011;8948;51.534;8.262;2022-12-18T15:36:09;7.27;;;3.50;;
17658;SDS011;8948;51.534;8.262;2022-12-18T15:41:15;8.17;;;4.67;;
17658;SDS011;8948;51.534;8.262;2022-12-18T15:46:18;7.20;;;3.43;;
17658;SDS011;8948;51.534;8.262;2022-12-18T15:56:22;7.70;;;4.23;;
17658;SDS011;8948;51.534;8.262;2022-12-18T16:01:42;6.63;;;4.10;;
17658;SDS011;8948;51.534;8.262;2022-12-18T16:06:44;7.17;;;3.77;;
17658;SDS011;8948;51.534;8.262;2022-12-18T16:11:45;11.90;;;4.60;;
17658;SDS011;8948;51.534;8.262;2022-12-18T16:16:48;6.37;;;3.60;;
17658;SDS011;8948;51.534;8.262;2022-12-18T16:21:52;6.57;;;4.00;;
17658;SDS011;8948;51.534;8.262;2022-12-18T16:26:55;7.63;;;4.37;;
17658;SDS011;8948;51.534;8.262;2022-12-18T16:31:59;7.87;;;4.63;;
17658;SDS011;8948;51.534;8.262;2022-12-18T16:37:01;6.93;;;3.97;;
17658;SDS011;8948;51.534;8.262;2022-12-18T16:42:10;7.73;;;4.10;;
17658;SDS011;8948;51.534;8.262;2022-12-18T16:47:16;8.67;;;4.77;;
17658;SDS011;8948;51.534;8.262;2022-12-18T16:52:18;8.33;;;4.93;;
17658;SDS011;8948;51.534;8.262;2022-12-18T16:57:20;9.00;;;4.97;;
17658;SDS011;8948;51.534;8.262;2022-12-18T17:02:22;13.00;;;5.10;;
17658;SDS011;8948;51.534;8.262;2022-12-18T17:07:25;8.07;;;4.97;;
17658;SDS011;8948;51.534;8.262;2022-12-18T17:12:26;14.93;;;7.53;;
17658;SDS011;8948;51.534;8.262;2022-12-18T17:17:27;11.50;;;5.97;;
17658;SDS011;8948;51.534;8.262;2022-12-18T17:22:27;11.93;;;6.43;;
17658;SDS011;8948;51.534;8.262;2022-12-18T17:27:28;11.60;;;6.13;;
17658;SDS011;8948;51.534;8.262;2022-12-18T17:32:29;12.57;;;6.83;;
17658;SDS011;8948;51.534;8.262;2022-12-18T17:37:29;12.47;;;6.70;;
17658;SDS011;8948;51.534;8.262;2022-12-18T17:42:30;12.50;;;6.73;;
17658;SDS011;8948;51.534;8.262;2022-12-18T17:47:30;14.63;;;7.93;;
17658;SDS011;8948;51.534;8.262;2022-12-18T17:52:31;27.83;;;8.50;;
17658;SDS011;8948;51.534;8.262;2022-12-18T17:57:31;17.33;;;9.03;;
17658;SDS011;8948;51.534;8.262;2022-12-18T18:02:32;17.83;;;8.67;;
17658;SDS011;8948;51.534;8.262;2022-12-18T18:07:32;19.47;;;9.70;;
17658;SDS011;8948;51.534;8.262;2022-12-18T18:12:33;19.60;;;9.93;;
17658;SDS011;8948;51.534;8.262;2022-12-18T18:17:53;20.53;;;10.37;;
17658;SDS011;8948;51.534;8.262;2022-12-18T18:22:54;20.07;;;9.70;;
17658;SDS011;8948;51.534;8.262;2022-12-18T18:27:55;18.70;;;9.93;;
17658;SDS011;8948;51.534;8.262;2022-12-18T18:32:55;18.30;;;8.40;;
17658;SDS011;8948;51.534;8.262;2022-12-18T18:37:56;20.90;;;10.90;;
17658;SDS011;8948;51.534;8.262;2022-12-18T18:42:57;20.87;;;10.37;;
17658;SDS011;8948;51.534;8.262;2022-12-18T18:47:57;23.00;;;11.13;;
17658;SDS011;8948;51.534;8.262;2022-12-18T18:52:58;19.03;;;9.27;;
17658;SDS011;8948;51.534;8.262;2022-12-18T18:57:58;22.83;;;10.83;;
17658;SDS011;8948;51.534;8.262;2022-12-18T19:02:59;20.90;;;10.50;;
17658;SDS011;8948;51.534;8.262;2022-12-18T19:07:59;20.57;;;10.37;;
17658;SDS011;8948;51.534;8.262;2022-12-18T19:13:00;25.97;;;11.00;;
17658;SDS011;8948;51.534;8.262;2022-12-18T19:18:20;27.47;;;11.73;;
17658;SDS011;8948;51.534;8.262;2022-12-18T19:23:21;21.80;;;11.70;;
17658;SDS011;8948;51.534;8.262;2022-12-18T19:28:22;25.63;;;11.83;;
17658;SDS011;8948;51.534;8.262;2022-12-18T19:33:28;23.13;;;12.30;;
17658;SDS011;8948;51.534;8.262;2022-12-18T19:38:31;26.10;;;12.47;;
17658;SDS011;8948;51.534;8.262;2022-12-18T19:43:31;31.53;;;13.03;;
17658;SDS011;8948;51.534;8.262;2022-12-18T19:48:34;21.27;;;10.40;;
17658;SDS011;8948;51.534;8.262;2022-12-18T19:53:35;30.57;;;13.70;;
17658;SDS011;8948;51.534;8.262;2022-12-18T19:58:36;28.50;;;13.83;;
17658;SDS011;8948;51.534;8.262;2022-12-18T20:03:36;26.23;;;12.47;;
17658;SDS011;8948;51.534;8.262;2022-12-18T20:08:37;25.33;;;13.23;;
17658;SDS011;8948;51.534;8.262;2022-12-18T20:13:38;31.00;;;14.70;;
17658;SDS011;8948;51.534;8.262;2022-12-18T20:18:38;28.57;;;14.70;;
17658;SDS011;8948;51.534;8.262;2022-12-18T20:23:39;28.77;;;14.77;;
17658;SDS011;8948;51.534;8.262;2022-12-18T20:28:40;33.70;;;14.30;;
17658;SDS011;8948;51.534;8.262;2022-12-18T20:33:41;26.17;;;13.30;;
17658;SDS011;8948;51.534;8.262;2022-12-18T20:38:42;30.60;;;12.73;;
17658;SDS011;8948;51.534;8.262;2022-12-18T20:43:42;29.33;;;13.97;;
17658;SDS011;8948;51.534;8.262;2022-12-18T20:48:43;32.07;;;13.90;;
17658;SDS011;8948;51.534;8.262;2022-12-18T20:53:45;26.60;;;12.90;;
17658;SDS011;8948;51.534;8.262;2022-12-18T20:58:46;26.57;;;12.50;;
17658;SDS011;8948;51.534;8.262;2022-12-18T21:03:47;23.97;;;12.30;;
17658;SDS011;8948;51.534;8.262;2022-12-18T21:08:49;25.03;;;12.00;;
17658;SDS011;8948;51.534;8.262;2022-12-18T21:13:49;21.73;;;10.57;;
17658;SDS011;8948;51.534;8.262;2022-12-18T21:18:50;22.63;;;11.03;;
17658;SDS011;8948;51.534;8.262;2022-12-18T21:23:50;24.57;;;11.37;;
17658;SDS011;8948;51.534;8.262;2022-12-18T21:28:52;18.93;;;9.60;;
17658;SDS011;8948;51.534;8.262;2022-12-18T21:33:57;22.23;;;11.07;;
17658;SDS011;8948;51.534;8.262;2022-12-18T21:38:57;21.33;;;10.23;;
17658;SDS011;8948;51.534;8.262;2022-12-18T21:43:58;23.37;;;11.20;;
17658;SDS011;8948;51.534;8.262;2022-12-18T21:49:05;21.57;;;10.47;;
17658;SDS011;8948;51.534;8.262;2022-12-18T21:54:07;21.40;;;10.00;;
17658;SDS011;8948;51.534;8.262;2022-12-18T21:59:08;22.43;;;10.83;;
17658;SDS011;8948;51.534;8.262;2022-12-18T22:04:09;23.67;;;11.80;;
17658;SDS011;8948;51.534;8.262;2022-12-18T22:09:11;18.47;;;9.77;;
17658;SDS011;8948;51.534;8.262;2022-12-18T22:14:14;20.37;;;10.80;;
17658;SDS011;8948;51.534;8.262;2022-12-18T22:19:16;21.30;;;10.03;;
17658;SDS011;8948;51.534;8.262;2022-12-18T22:24:18;24.03;;;12.00;;
17658;SDS011;8948;51.534;8.262;2022-12-18T22:29:21;22.10;;;10.07;;
17658;SDS011;8948;51.534;8.262;2022-12-18T22:34:41;27.70;;;12.80;;
17658;SDS011;8948;51.534;8.262;2022-12-18T22:39:42;29.07;;;13.97;;
17658;SDS011;8948;51.534;8.262;2022-12-18T22:44:42;26.60;;;12.80;;
17658;SDS011;8948;51.534;8.262;2022-12-18T22:49:43;26.03;;;12.97;;
17658;SDS011;8948;51.534;8.262;2022-12-18T22:54:43;25.23;;;13.03;;
17658;SDS011;8948;51.534;8.262;2022-12-18T22:59:45;24.80;;;12.50;;
17658;SDS011;8948;51.534;8.262;2022-12-18T23:04:46;26.97;;;12.50;;
17658;SDS011;8948;51.534;8.262;2022-12-18T23:09:46;26.73;;;12.57;;
17658;SDS011;8948;51.534;8.262;2022-12-18T23:14:48;25.40;;;12.37;;
17658;SDS011;8948;51.534;8.262;2022-12-18T23:19:49;23.63;;;11.60;;
17658;SDS011;8948;51.534;8.262;2022-12-18T23:24:49;26.10;;;13.37;;
17658;SDS011;8948;51.534;8.262;2022-12-18T23:29:50;29.50;;;13.47;;
17658;SDS011;8948;51.534;8.262;2022-12-18T23:34:50;26.87;;;12.03;;
17658;SDS011;8948;51.534;8.262;2022-12-18T23:39:52;23.77;;;12.33;;
17658;SDS011;8948;51.534;8.262;2022-12-18T23:44:52;25.53;;;12.27;;
17658;SDS011;8948;51.534;8.262;2022-12-18T23:49:53;24.33;;;11.67;;
17658;SDS011;8948;51.534;8.262;2022-12-18T23:54:54;27.03;;;13.30;;
17658;SDS011;8948;51.534;8.262;2022-12-18T23:59:54;33.27;;;13.60;;
